Time;durP1;ratioP1;P1;durP2;ratioP2;P2;SDS_P1;SDS_P2;PMS_P1;PMS_P2;Temp;Humidity;BMP_temperature;BMP_pressure;BME280_temperature;BME280_humidity;BME280_pressure;Samples;Min_cycle;Max_cycle;Signal;HPM_P1;HPM_P2
2022/10/30 00:02:00;;;;;;;;;;;14.50;99.90;;;;;;5049164;28;19939;-61
2022/10/30 00:04:27;;;;;;;;;;;14.50;99.90;;;;;;5050484;28;19936;-61
2022/10/30 00:06:53;;;;;;;;;;;14.50;99.90;;;;;;5050631;28;19939;-61
2022/10/30 00:09:20;;;;;;;;;;;14.50;99.90;;;;;;5049846;28;20676;-61
2022/10/30 00:11:46;;;;;;;;;;;14.60;99.90;;;;;;5050479;28;19933;-61
2022/10/30 00:14:13;;;;;;;;;;;14.60;99.90;;;;;;5050172;28;19929;-61
2022/10/30 00:16:40;;;;;;;;;;;14.70;99.90;;;;;;5050972;28;19944;-61
2022/10/30 00:19:08;;;;;;;;;;;14.60;99.90;;;;;;5054149;28;19929;-61
2022/10/30 00:21:35;;;;;;;;;;;14.70;99.90;;;;;;5053666;28;19976;-62
2022/10/30 00:24:01;;;;;;;;;;;14.70;99.90;;;;;;5052494;28;19975;-61
2022/10/30 00:26:28;;;;;;;;;;;14.70;99.90;;;;;;5052468;28;19939;-61
2022/10/30 00:28:56;;;;;;;;;;;14.70;99.90;;;;;;5051538;28;22173;-61
2022/10/30 00:31:22;;;;;;;;;;;14.70;99.90;;;;;;5054580;28;19933;-62
2022/10/30 00:33:50;;;;;;;;;;;14.70;99.90;;;;;;5054524;28;19928;-61
2022/10/30 00:36:18;;;;;;;;;;;14.80;99.90;;;;;;5053318;28;19932;-61
2022/10/30 00:38:45;;;;;;;;;;;14.70;99.90;;;;;;5053944;28;19935;-61
2022/10/30 00:41:13;;;;;;;;;;;14.70;99.90;;;;;;5054507;28;19928;-61
2022/10/30 00:43:40;;;;;;;;;;;14.80;99.90;;;;;;5053629;28;19939;-61
2022/10/30 00:46:12;;;;;;;;;;;14.70;99.90;;;;;;5053652;28;19939;-62
2022/10/30 00:48:38;;;;;;;;;;;14.80;99.90;;;;;;5051712;28;19935;-62
2022/10/30 00:51:07;;;;;;;;;;;14.80;99.90;;;;;;5054125;28;19936;-61
2022/10/30 00:53:35;;;;;;;;;;;14.80;99.90;;;;;;5053944;28;20395;-62
2022/10/30 00:56:04;;;;;;;;;;;14.80;99.90;;;;;;5052853;28;20402;-62
2022/10/30 00:58:32;;;;;;;;;;;14.80;99.90;;;;;;5051124;28;19929;-61
2022/10/30 01:01:01;;;;;;;;;;;14.80;99.90;;;;;;5053458;28;19982;-62
2022/10/30 01:03:29;;;;;;;;;;;14.80;99.90;;;;;;5052432;28;19928;-62
2022/10/30 01:05:57;;;;;;;;;;;14.80;99.90;;;;;;5052811;28;19932;-61
2022/10/30 01:08:23;;;;;;;;;;;14.80;99.90;;;;;;5053887;28;19936;-61
2022/10/30 01:10:51;;;;;;;;;;;14.80;99.90;;;;;;5051377;28;20047;-61
2022/10/30 01:13:19;;;;;;;;;;;14.80;99.90;;;;;;5052718;28;19991;-61
2022/10/30 01:15:51;;;;;;;;;;;14.80;99.90;;;;;;5052348;28;19932;-61
2022/10/30 01:18:26;;;;;;;;;;;14.80;99.90;;;;;;5051768;28;19939;-61
2022/10/30 01:21:10;;;;;;;;;;;14.80;99.90;;;;;;5053563;28;20384;-61
2022/10/30 01:23:41;;;;;;;;;;;14.80;99.90;;;;;;5051760;28;20029;-61
2022/10/30 01:26:14;;;;;;;;;;;14.80;99.90;;;;;;5052421;28;19944;-61
2022/10/30 01:28:50;;;;;;;;;;;14.80;99.90;;;;;;5050910;28;19929;-61
2022/10/30 01:31:22;;;;;;;;;;;14.80;99.90;;;;;;5053805;28;20003;-61
2022/10/30 01:33:55;;;;;;;;;;;14.80;99.90;;;;;;5051692;28;19929;-61
2022/10/30 01:36:24;;;;;;;;;;;14.80;99.90;;;;;;5052655;28;19932;-61
2022/10/30 01:38:52;;;;;;;;;;;14.80;99.90;;;;;;5051650;28;20723;-62
2022/10/30 01:41:20;;;;;;;;;;;14.70;99.90;;;;;;5053055;28;20019;-61
2022/10/30 01:43:48;;;;;;;;;;;14.80;99.90;;;;;;5053195;28;19928;-62
2022/10/30 01:46:29;;;;;;;;;;;14.80;99.90;;;;;;5052723;28;19939;-61
2022/10/30 01:49:05;;;;;;;;;;;14.70;99.90;;;;;;5051045;28;19928;-61
2022/10/30 01:51:38;;;;;;;;;;;14.70;99.90;;;;;;5053174;28;20572;-61
2022/10/30 01:54:09;;;;;;;;;;;14.70;99.90;;;;;;5052754;28;20028;-61
2022/10/30 01:56:39;;;;;;;;;;;14.80;99.90;;;;;;5052181;28;19933;-61
2022/10/30 01:59:09;;;;;;;;;;;14.70;99.90;;;;;;5051979;28;19929;-61
2022/10/30 02:01:37;;;;;;;;;;;14.70;99.90;;;;;;5052565;28;19929;-61
2022/10/30 02:04:04;;;;;;;;;;;14.70;99.90;;;;;;5052630;28;19932;-61
2022/10/30 02:06:30;;;;;;;;;;;14.70;99.90;;;;;;5051181;28;20529;-61
2022/10/30 02:08:57;;;;;;;;;;;14.70;99.90;;;;;;5049095;28;19929;-62
2022/10/30 02:11:24;;;;;;;;;;;14.70;99.90;;;;;;5051548;28;19928;-61
2022/10/30 02:13:54;;;;;;;;;;;14.70;99.90;;;;;;5051940;28;19929;-61
2022/10/30 02:16:20;;;;;;;;;;;14.70;99.90;;;;;;5051480;28;19936;-62
2022/10/30 02:18:47;;;;;;;;;;;14.70;99.90;;;;;;5051894;28;19936;-61
2022/10/30 02:21:15;;;;;;;;;;;14.70;99.90;;;;;;5051709;28;19933;-62
2022/10/30 02:23:42;;;;;;;;;;;14.70;99.90;;;;;;5050675;28;20145;-61
2022/10/30 02:26:08;;;;;;;;;;;14.70;99.90;;;;;;5051321;28;19933;-62
2022/10/30 02:28:35;;;;;;;;;;;14.70;99.90;;;;;;5051029;28;19935;-61
2022/10/30 02:31:02;;;;;;;;;;;14.70;99.90;;;;;;5051581;28;20067;-62
2022/10/30 02:33:28;;;;;;;;;;;14.60;99.90;;;;;;5052014;28;20407;-62
2022/10/30 02:35:55;;;;;;;;;;;14.70;99.90;;;;;;5052598;28;20419;-61
2022/10/30 02:38:23;;;;;;;;;;;14.60;99.90;;;;;;5052261;28;19929;-61
2022/10/30 02:40:49;;;;;;;;;;;14.60;99.90;;;;;;5050625;28;20847;-61
2022/10/30 02:43:16;;;;;;;;;;;14.60;99.90;;;;;;5052133;28;19935;-61
2022/10/30 02:45:43;;;;;;;;;;;14.60;99.90;;;;;;5050261;28;19973;-61
2022/10/30 02:48:09;;;;;;;;;;;14.60;99.90;;;;;;5051566;28;19936;-61
2022/10/30 02:50:36;;;;;;;;;;;14.60;99.90;;;;;;5050763;28;19929;-61
2022/10/30 02:53:03;;;;;;;;;;;14.60;99.90;;;;;;5051512;28;19936;-61
2022/10/30 02:55:31;;;;;;;;;;;14.50;99.90;;;;;;5051101;28;19939;-61
2022/10/30 02:57:57;;;;;;;;;;;14.60;99.90;;;;;;5050545;28;19929;-61
2022/10/30 03:00:24;;;;;;;;;;;14.50;99.90;;;;;;5052209;28;19929;-61
2022/10/30 03:02:54;;;;;;;;;;;14.50;99.90;;;;;;5051080;28;19933;-62
2022/10/30 03:05:20;;;;;;;;;;;14.50;99.90;;;;;;5051980;28;19933;-61
2022/10/30 03:07:47;;;;;;;;;;;14.50;99.90;;;;;;5051256;28;19928;-61
2022/10/30 03:10:14;;;;;;;;;;;14.50;99.90;;;;;;5051032;28;19935;-61
2022/10/30 03:12:42;;;;;;;;;;;14.50;99.90;;;;;;5051148;28;19929;-61
2022/10/30 03:15:09;;;;;;;;;;;14.40;99.90;;;;;;5050779;28;19932;-61
2022/10/30 03:17:36;;;;;;;;;;;14.40;99.90;;;;;;5049476;28;19928;-61
2022/10/30 03:20:02;;;;;;;;;;;14.50;99.90;;;;;;5052415;28;19929;-62
2022/10/30 03:22:29;;;;;;;;;;;14.50;99.90;;;;;;5050993;28;19939;-61
2022/10/30 03:24:56;;;;;;;;;;;14.50;99.90;;;;;;5050957;28;19932;-61
2022/10/30 03:27:23;;;;;;;;;;;14.40;99.90;;;;;;5048160;28;19928;-61
2022/10/30 03:29:51;;;;;;;;;;;14.40;99.90;;;;;;5051087;28;19936;-61
2022/10/30 03:32:17;;;;;;;;;;;14.50;99.90;;;;;;5050169;28;19928;-61
2022/10/30 03:34:44;;;;;;;;;;;14.40;99.90;;;;;;5051520;28;19932;-61
2022/10/30 03:37:10;;;;;;;;;;;14.40;99.90;;;;;;5050378;28;19929;-61
2022/10/30 03:39:37;;;;;;;;;;;14.40;99.90;;;;;;5050564;28;19928;-61
2022/10/30 03:42:04;;;;;;;;;;;14.40;99.90;;;;;;5051030;28;20392;-61
2022/10/30 03:44:30;;;;;;;;;;;14.40;99.90;;;;;;5049715;28;20745;-61
2022/10/30 03:46:58;;;;;;;;;;;14.40;99.90;;;;;;5050313;28;20015;-61
2022/10/30 03:49:25;;;;;;;;;;;14.40;99.90;;;;;;5049417;28;20047;-61
2022/10/30 03:51:52;;;;;;;;;;;14.40;99.90;;;;;;5051647;28;20757;-61
2022/10/30 03:54:18;;;;;;;;;;;14.30;99.90;;;;;;5053971;28;19939;-61
2022/10/30 03:56:45;;;;;;;;;;;14.30;99.90;;;;;;5053157;28;19929;-61
2022/10/30 03:59:12;;;;;;;;;;;14.30;99.90;;;;;;5053012;28;19929;-61
2022/10/30 04:01:38;;;;;;;;;;;14.30;99.90;;;;;;5053327;28;22119;-61
2022/10/30 04:04:06;;;;;;;;;;;14.30;99.90;;;;;;5052882;28;19932;-61
2022/10/30 04:06:33;;;;;;;;;;;14.30;99.90;;;;;;5054239;28;19935;-61
2022/10/30 04:09:00;;;;;;;;;;;14.20;99.90;;;;;;5053403;28;19935;-61
2022/10/30 04:11:26;;;;;;;;;;;14.20;99.90;;;;;;5053695;28;19935;-62
2022/10/30 04:13:53;;;;;;;;;;;14.20;99.90;;;;;;5053684;28;19933;-61
2022/10/30 04:16:20;;;;;;;;;;;14.20;99.90;;;;;;5054123;28;19933;-61
2022/10/30 04:18:46;;;;;;;;;;;14.20;99.90;;;;;;5054368;28;21179;-61
2022/10/30 04:21:14;;;;;;;;;;;14.20;99.90;;;;;;5053300;28;19929;-61
2022/10/30 04:23:41;;;;;;;;;;;14.20;99.90;;;;;;5054129;28;19943;-62
2022/10/30 04:26:07;;;;;;;;;;;14.20;99.90;;;;;;5053893;28;19928;-61
2022/10/30 04:28:34;;;;;;;;;;;14.10;99.90;;;;;;5054231;28;19936;-62
2022/10/30 04:31:01;;;;;;;;;;;14.10;99.90;;;;;;5053126;28;19994;-61
2022/10/30 04:33:28;;;;;;;;;;;14.10;99.90;;;;;;5054611;28;21070;-61
2022/10/30 04:35:55;;;;;;;;;;;14.10;99.90;;;;;;5054152;28;19929;-61
2022/10/30 04:38:23;;;;;;;;;;;14.10;99.90;;;;;;5053643;28;19929;-61
2022/10/30 04:40:49;;;;;;;;;;;14.10;99.90;;;;;;5054658;28;22001;-61
2022/10/30 04:43:16;;;;;;;;;;;14.10;99.90;;;;;;5052243;28;20035;-62
2022/10/30 04:45:42;;;;;;;;;;;14.10;99.90;;;;;;5053789;28;19929;-61
2022/10/30 04:48:11;;;;;;;;;;;14.10;99.90;;;;;;5054980;28;19938;-61
2022/10/30 04:50:37;;;;;;;;;;;14.10;99.90;;;;;;5051800;28;19929;-62
2022/10/30 04:53:05;;;;;;;;;;;14.10;99.90;;;;;;5054485;28;20025;-61
2022/10/30 04:55:33;;;;;;;;;;;14.10;99.90;;;;;;5053809;28;19929;-61
2022/10/30 04:58:01;;;;;;;;;;;14.10;99.90;;;;;;5052100;28;20590;-61
2022/10/30 05:00:30;;;;;;;;;;;14.00;99.90;;;;;;5053895;28;19929;-61
2022/10/30 05:02:58;;;;;;;;;;;14.10;99.90;;;;;;5052431;28;19975;-61
2022/10/30 05:05:24;;;;;;;;;;;14.10;99.90;;;;;;5051614;28;20378;-61
2022/10/30 05:07:51;;;;;;;;;;;14.00;99.90;;;;;;5053482;28;19935;-61
2022/10/30 05:10:18;;;;;;;;;;;14.00;99.90;;;;;;5053459;28;19928;-62
2022/10/30 05:12:46;;;;;;;;;;;14.10;99.90;;;;;;5052540;28;19933;-62
2022/10/30 05:15:13;;;;;;;;;;;14.10;99.90;;;;;;5052851;28;19928;-61
2022/10/30 05:17:40;;;;;;;;;;;14.10;99.90;;;;;;5053749;28;19928;-62
2022/10/30 05:20:07;;;;;;;;;;;14.10;99.90;;;;;;5053618;28;19954;-61
2022/10/30 05:22:34;;;;;;;;;;;14.10;99.90;;;;;;5051925;28;20411;-61
2022/10/30 05:25:00;;;;;;;;;;;14.10;99.90;;;;;;5052497;28;19928;-62
2022/10/30 05:27:27;;;;;;;;;;;14.10;99.90;;;;;;5051359;28;19940;-62
2022/10/30 05:29:55;;;;;;;;;;;14.10;99.90;;;;;;5053901;28;19928;-62
2022/10/30 05:32:21;;;;;;;;;;;14.10;99.90;;;;;;5052480;28;19933;-61
2022/10/30 05:34:48;;;;;;;;;;;14.10;99.90;;;;;;5051740;28;19933;-62
2022/10/30 05:37:15;;;;;;;;;;;14.10;99.90;;;;;;5053896;28;19929;-61
2022/10/30 05:39:41;;;;;;;;;;;14.10;99.90;;;;;;5052638;28;19952;-61
2022/10/30 05:42:08;;;;;;;;;;;14.00;99.90;;;;;;5052168;28;20380;-61
2022/10/30 05:44:35;;;;;;;;;;;14.00;99.90;;;;;;5053917;28;21395;-62
2022/10/30 05:47:03;;;;;;;;;;;14.00;99.90;;;;;;5053800;28;19935;-61
2022/10/30 05:49:29;;;;;;;;;;;14.00;99.90;;;;;;5053400;28;19928;-61
2022/10/30 05:51:56;;;;;;;;;;;14.00;99.90;;;;;;5054303;28;21127;-61
2022/10/30 05:54:23;;;;;;;;;;;13.90;99.90;;;;;;5053411;28;20414;-61
2022/10/30 05:56:49;;;;;;;;;;;13.90;99.90;;;;;;5053711;28;19929;-61
2022/10/30 05:59:16;;;;;;;;;;;13.90;99.90;;;;;;5053151;28;20059;-61
2022/10/30 06:01:43;;;;;;;;;;;13.90;99.90;;;;;;5053723;28;20402;-61
2022/10/30 06:04:11;;;;;;;;;;;13.90;99.90;;;;;;5052669;28;19935;-61
2022/10/30 06:06:38;;;;;;;;;;;13.90;99.90;;;;;;5053302;28;19929;-61
2022/10/30 06:09:04;;;;;;;;;;;13.80;99.90;;;;;;5053411;28;19929;-61
2022/10/30 06:11:31;;;;;;;;;;;13.90;99.90;;;;;;5053222;28;19936;-61
2022/10/30 06:13:58;;;;;;;;;;;13.90;99.90;;;;;;5051939;28;20411;-61
2022/10/30 06:16:24;;;;;;;;;;;13.80;99.90;;;;;;5052473;28;19935;-61
2022/10/30 06:18:51;;;;;;;;;;;13.80;99.90;;;;;;5051750;28;20421;-62
2022/10/30 06:21:19;;;;;;;;;;;13.80;99.90;;;;;;5051759;28;19933;-61
2022/10/30 06:23:47;;;;;;;;;;;13.80;99.90;;;;;;5049489;28;19929;-61
2022/10/30 06:26:14;;;;;;;;;;;13.80;99.90;;;;;;5051997;28;19993;-61
2022/10/30 06:28:40;;;;;;;;;;;13.80;99.90;;;;;;5051809;28;20855;-61
2022/10/30 06:31:07;;;;;;;;;;;13.80;99.90;;;;;;5051797;28;19933;-61
2022/10/30 06:33:34;;;;;;;;;;;13.80;99.90;;;;;;5051323;28;19979;-61
2022/10/30 06:36:01;;;;;;;;;;;13.80;99.90;;;;;;5051859;28;20734;-61
2022/10/30 06:38:29;;;;;;;;;;;13.80;99.90;;;;;;5051228;28;19936;-61
2022/10/30 06:40:55;;;;;;;;;;;13.80;99.90;;;;;;5051997;28;20077;-61
2022/10/30 06:43:22;;;;;;;;;;;13.80;99.90;;;;;;5052529;28;19928;-61
2022/10/30 06:45:49;;;;;;;;;;;13.80;99.90;;;;;;5052245;28;19929;-61
2022/10/30 06:48:17;;;;;;;;;;;13.80;99.90;;;;;;5051497;28;19979;-62
2022/10/30 06:50:44;;;;;;;;;;;13.80;99.90;;;;;;5050053;28;20406;-61
2022/10/30 06:53:10;;;;;;;;;;;13.70;99.90;;;;;;5052670;28;19958;-61
2022/10/30 06:55:38;;;;;;;;;;;13.80;99.90;;;;;;5050022;28;20300;-61
2022/10/30 06:58:05;;;;;;;;;;;13.80;99.90;;;;;;5050777;28;20649;-61
2022/10/30 07:00:32;;;;;;;;;;;13.70;99.90;;;;;;5050001;28;19937;-61
2022/10/30 07:02:59;;;;;;;;;;;13.80;99.90;;;;;;5050266;28;19929;-61
2022/10/30 07:05:26;;;;;;;;;;;13.80;99.90;;;;;;5049481;28;19932;-62
2022/10/30 07:07:52;;;;;;;;;;;13.80;99.90;;;;;;5049121;28;19928;-62
2022/10/30 07:10:19;;;;;;;;;;;13.90;99.90;;;;;;5048094;28;19940;-62
2022/10/30 07:12:54;;;;;;;;;;;14.00;99.90;;;;;;5049185;28;21437;-62
2022/10/30 07:15:20;;;;;;;;;;;13.90;99.90;;;;;;5049401;28;19928;-61
2022/10/30 07:17:54;;;;;;;;;;;14.00;99.90;;;;;;5048689;28;19936;-61
2022/10/30 07:20:21;;;;;;;;;;;14.00;99.90;;;;;;5049398;28;19932;-62
2022/10/30 07:22:48;;;;;;;;;;;14.00;99.90;;;;;;5050661;28;19928;-62
2022/10/30 07:25:14;;;;;;;;;;;14.10;99.90;;;;;;5050363;28;19936;-61
2022/10/30 07:27:41;;;;;;;;;;;14.10;99.90;;;;;;5046691;28;20425;-63
2022/10/30 07:30:10;;;;;;;;;;;14.10;99.90;;;;;;5049670;28;20895;-62
2022/10/30 07:32:37;;;;;;;;;;;14.10;99.90;;;;;;5050184;28;19959;-62
2022/10/30 07:35:04;;;;;;;;;;;14.20;99.90;;;;;;5048558;28;20396;-62
2022/10/30 07:37:31;;;;;;;;;;;14.20;99.90;;;;;;5049391;28;19935;-61
2022/10/30 07:39:58;;;;;;;;;;;14.20;99.90;;;;;;5050067;28;20394;-62
2022/10/30 07:42:24;;;;;;;;;;;14.30;99.90;;;;;;5049735;28;19935;-62
2022/10/30 07:44:51;;;;;;;;;;;14.30;99.90;;;;;;5049671;28;20340;-62
2022/10/30 07:47:19;;;;;;;;;;;14.30;99.90;;;;;;5048740;28;20063;-62
2022/10/30 07:49:45;;;;;;;;;;;14.30;99.90;;;;;;5049080;28;19933;-62
2022/10/30 07:52:12;;;;;;;;;;;14.40;99.90;;;;;;5049123;28;21067;-62
2022/10/30 07:54:39;;;;;;;;;;;14.40;99.90;;;;;;5048851;28;19936;-62
2022/10/30 07:57:05;;;;;;;;;;;14.40;99.90;;;;;;5049669;28;19933;-62
2022/10/30 07:59:32;;;;;;;;;;;14.50;99.90;;;;;;5050232;28;19938;-62
2022/10/30 08:02:00;;;;;;;;;;;14.50;99.90;;;;;;5049432;28;19929;-62
2022/10/30 08:04:28;;;;;;;;;;;14.50;99.90;;;;;;5050521;28;19936;-62
2022/10/30 08:06:55;;;;;;;;;;;14.60;99.90;;;;;;5050163;28;19929;-62
2022/10/30 08:09:21;;;;;;;;;;;14.60;99.90;;;;;;5050625;28;19933;-62
2022/10/30 08:11:48;;;;;;;;;;;14.70;99.90;;;;;;5049990;28;19933;-62
2022/10/30 08:14:14;;;;;;;;;;;14.70;99.90;;;;;;5049140;28;19929;-62
2022/10/30 08:16:41;;;;;;;;;;;14.70;99.90;;;;;;5047892;28;20099;-62
2022/10/30 08:19:08;;;;;;;;;;;14.70;99.90;;;;;;5051013;28;20345;-62
2022/10/30 08:21:36;;;;;;;;;;;14.80;99.90;;;;;;5051056;28;19936;-62
2022/10/30 08:24:02;;;;;;;;;;;14.90;99.90;;;;;;5050369;28;19928;-62
2022/10/30 08:26:29;;;;;;;;;;;14.90;99.90;;;;;;5049369;28;20524;-62
2022/10/30 08:28:56;;;;;;;;;;;15.00;99.90;;;;;;5050109;28;20617;-62
2022/10/30 08:31:22;;;;;;;;;;;15.00;99.90;;;;;;5050003;28;19935;-62
2022/10/30 08:33:49;;;;;;;;;;;15.10;99.90;;;;;;5048383;28;19928;-62
2022/10/30 08:36:15;;;;;;;;;;;15.10;99.90;;;;;;5050606;28;19929;-62
2022/10/30 08:38:44;;;;;;;;;;;15.20;99.90;;;;;;5051828;28;19940;-63
2022/10/30 08:41:10;;;;;;;;;;;15.20;99.90;;;;;;5054593;28;20429;-62
2022/10/30 08:43:37;;;;;;;;;;;15.30;99.90;;;;;;5054080;28;19929;-62
2022/10/30 08:46:07;;;;;;;;;;;15.40;99.90;;;;;;5054951;28;19928;-62
2022/10/30 08:48:33;;;;;;;;;;;15.40;99.90;;;;;;5053959;28;20377;-62
2022/10/30 08:51:03;;;;;;;;;;;15.50;99.90;;;;;;5053221;28;19929;-62
2022/10/30 08:53:30;;;;;;;;;;;15.50;99.90;;;;;;5054463;28;19933;-62
2022/10/30 08:55:58;;;;;;;;;;;15.50;99.90;;;;;;5053382;28;19929;-62
2022/10/30 08:58:25;;;;;;;;;;;15.60;99.90;;;;;;5053613;28;19939;-62
2022/10/30 09:00:51;;;;;;;;;;;15.60;99.90;;;;;;5054569;28;20375;-62
2022/10/30 09:03:18;;;;;;;;;;;15.60;99.90;;;;;;5051444;28;19928;-62
2022/10/30 09:05:45;;;;;;;;;;;15.70;99.90;;;;;;5053059;28;19928;-62
2022/10/30 09:08:11;;;;;;;;;;;15.80;99.90;;;;;;5053003;28;19933;-62
2022/10/30 09:10:38;;;;;;;;;;;15.80;99.90;;;;;;5053386;28;19936;-62
2022/10/30 09:13:09;;;;;;;;;;;15.90;99.90;;;;;;5052298;28;19928;-62
2022/10/30 09:15:35;;;;;;;;;;;15.90;99.90;;;;;;5052638;28;20855;-62
2022/10/30 09:18:03;;;;;;;;;;;16.00;99.90;;;;;;5052685;28;20354;-62
2022/10/30 09:20:30;;;;;;;;;;;16.00;99.90;;;;;;5050927;28;19968;-62
2022/10/30 09:22:57;;;;;;;;;;;16.10;99.90;;;;;;5051386;28;19929;-62
2022/10/30 09:25:24;;;;;;;;;;;16.20;99.90;;;;;;5051555;28;19940;-62
2022/10/30 09:27:50;;;;;;;;;;;16.20;99.90;;;;;;5050861;28;19940;-62
2022/10/30 09:30:18;;;;;;;;;;;16.30;99.90;;;;;;5051596;28;19929;-62
2022/10/30 09:32:45;;;;;;;;;;;16.40;99.90;;;;;;5052043;28;19929;-62
2022/10/30 09:35:11;;;;;;;;;;;16.40;99.90;;;;;;5051592;28;19929;-62
2022/10/30 09:37:39;;;;;;;;;;;16.50;99.90;;;;;;5050564;28;20699;-62
2022/10/30 09:40:07;;;;;;;;;;;16.60;99.90;;;;;;5051093;28;20118;-62
2022/10/30 09:42:40;;;;;;;;;;;16.70;99.90;;;;;;5051104;28;20244;-62
2022/10/30 09:45:16;;;;;;;;;;;16.80;99.90;;;;;;5051791;28;19928;-62
2022/10/30 09:47:50;;;;;;;;;;;16.90;99.90;;;;;;5050839;28;20327;-62
2022/10/30 09:50:24;;;;;;;;;;;17.00;99.90;;;;;;5051256;28;19944;-62
2022/10/30 09:52:57;;;;;;;;;;;17.10;99.90;;;;;;5051915;28;19994;-62
2022/10/30 09:55:29;;;;;;;;;;;17.20;99.90;;;;;;5052324;28;19929;-62
2022/10/30 09:58:01;;;;;;;;;;;17.20;99.90;;;;;;5051752;28;19939;-62
2022/10/30 10:00:30;;;;;;;;;;;17.20;99.90;;;;;;5051948;28;19935;-62
2022/10/30 10:03:06;;;;;;;;;;;17.20;99.90;;;;;;5052937;28;20020;-62
2022/10/30 10:05:36;;;;;;;;;;;17.30;99.90;;;;;;5052229;28;19929;-62
2022/10/30 10:08:05;;;;;;;;;;;17.30;99.90;;;;;;5052296;28;19933;-62
2022/10/30 10:10:37;;;;;;;;;;;17.30;99.90;;;;;;5052986;28;19936;-62
2022/10/30 10:13:05;;;;;;;;;;;17.30;99.90;;;;;;5052883;28;19928;-62
2022/10/30 10:15:37;;;;;;;;;;;17.40;99.90;;;;;;5051347;28;19940;-62
2022/10/30 10:18:11;;;;;;;;;;;17.50;99.90;;;;;;5049144;28;20071;-62
2022/10/30 10:20:41;;;;;;;;;;;17.50;99.90;;;;;;5055568;28;19978;-62
2022/10/30 10:23:12;;;;;;;;;;;17.60;99.90;;;;;;5055317;28;19982;-62
2022/10/30 10:25:40;;;;;;;;;;;17.70;99.90;;;;;;5055781;28;20275;-62
2022/10/30 10:28:13;;;;;;;;;;;17.80;99.90;;;;;;5055036;28;19933;-62
2022/10/30 10:30:45;;;;;;;;;;;17.90;99.90;;;;;;5055670;28;20042;-63
2022/10/30 10:33:26;;;;;;;;;;;17.90;99.90;;;;;;5055605;28;19938;-62
2022/10/30 10:35:54;;;;;;;;;;;17.90;99.90;;;;;;5056027;28;19935;-62
2022/10/30 10:38:29;;;;;;;;;;;17.90;99.90;;;;;;5055468;28;19943;-62
2022/10/30 10:40:58;;;;;;;;;;;17.90;99.90;;;;;;5055516;28;19929;-62
2022/10/30 10:43:31;;;;;;;;;;;18.00;99.90;;;;;;5055018;28;19958;-62
2022/10/30 10:46:09;;;;;;;;;;;18.00;99.90;;;;;;5054695;28;19928;-62
2022/10/30 10:48:42;;;;;;;;;;;18.00;99.90;;;;;;5056364;28;19994;-62
2022/10/30 10:51:11;;;;;;;;;;;17.90;99.90;;;;;;5055952;28;19936;-62
2022/10/30 10:53:41;;;;;;;;;;;17.90;99.90;;;;;;5055900;28;19929;-62
2022/10/30 10:56:08;;;;;;;;;;;17.90;99.90;;;;;;5055099;28;19928;-62
2022/10/30 10:58:41;;;;;;;;;;;17.90;99.90;;;;;;5055980;28;19932;-62
2022/10/30 11:01:12;;;;;;;;;;;17.90;99.90;;;;;;5055102;28;19939;-62
2022/10/30 11:03:45;;;;;;;;;;;17.90;99.90;;;;;;5054665;28;19929;-63
2022/10/30 11:06:18;;;;;;;;;;;17.90;99.90;;;;;;5055598;28;19928;-62
2022/10/30 11:08:44;;;;;;;;;;;17.90;99.90;;;;;;5055095;28;20502;-62
2022/10/30 11:11:11;;;;;;;;;;;17.90;99.90;;;;;;5054742;28;19929;-62
2022/10/30 11:13:39;;;;;;;;;;;17.90;99.90;;;;;;5054870;28;19929;-62
2022/10/30 11:16:11;;;;;;;;;;;17.90;99.90;;;;;;5054939;28;19971;-62
2022/10/30 11:18:40;;;;;;;;;;;17.90;99.90;;;;;;5054839;28;19933;-62
2022/10/30 11:21:09;;;;;;;;;;;17.90;99.90;;;;;;5055307;28;19937;-62
2022/10/30 11:23:38;;;;;;;;;;;17.90;99.90;;;;;;5055559;28;20371;-62
2022/10/30 11:26:24;;;;;;;;;;;18.00;99.90;;;;;;5055293;28;19929;-63
2022/10/30 11:28:52;;;;;;;;;;;18.10;99.90;;;;;;5054314;28;19937;-62
2022/10/30 11:31:20;;;;;;;;;;;18.20;99.90;;;;;;5054806;28;19928;-62
2022/10/30 11:33:49;;;;;;;;;;;18.20;99.90;;;;;;5054688;28;19959;-63
2022/10/30 11:36:16;;;;;;;;;;;18.30;99.90;;;;;;5054283;28;19959;-62
2022/10/30 11:38:43;;;;;;;;;;;18.30;99.90;;;;;;5054772;28;19932;-62
2022/10/30 11:41:10;;;;;;;;;;;18.40;99.90;;;;;;5053482;28;19928;-62
2022/10/30 11:43:41;;;;;;;;;;;18.50;99.90;;;;;;5054616;28;19933;-62
2022/10/30 11:46:09;;;;;;;;;;;18.50;99.90;;;;;;5055567;28;19940;-62
2022/10/30 11:48:37;;;;;;;;;;;18.60;99.90;;;;;;5054730;28;19932;-63
2022/10/30 11:51:06;;;;;;;;;;;18.70;99.90;;;;;;5054757;28;19928;-62
2022/10/30 11:53:35;;;;;;;;;;;18.70;99.90;;;;;;5055214;28;20655;-62
2022/10/30 11:56:03;;;;;;;;;;;18.70;99.90;;;;;;5054103;28;20505;-62
2022/10/30 11:58:32;;;;;;;;;;;18.70;99.90;;;;;;5054598;28;20853;-62
2022/10/30 12:01:01;;;;;;;;;;;18.70;99.90;;;;;;5055010;28;20538;-62
2022/10/30 12:03:28;;;;;;;;;;;18.80;99.90;;;;;;5053931;28;19939;-62
2022/10/30 12:06:06;;;;;;;;;;;18.80;99.90;;;;;;5054238;28;20532;-62
2022/10/30 12:08:34;;;;;;;;;;;18.90;99.90;;;;;;5054564;28;19939;-62
2022/10/30 12:11:02;;;;;;;;;;;18.90;99.90;;;;;;5054844;28;19928;-62
2022/10/30 12:13:32;;;;;;;;;;;18.90;99.90;;;;;;5055756;28;19935;-62
2022/10/30 12:16:07;;;;;;;;;;;18.80;99.90;;;;;;5057559;28;19928;-62
2022/10/30 12:18:34;;;;;;;;;;;18.80;99.90;;;;;;5057977;28;19933;-62
2022/10/30 12:21:02;;;;;;;;;;;18.80;99.90;;;;;;5057035;28;19935;-62
2022/10/30 12:23:28;;;;;;;;;;;18.90;99.90;;;;;;5057773;28;19995;-62
2022/10/30 12:25:58;;;;;;;;;;;18.90;99.90;;;;;;5058468;28;20313;-62
2022/10/30 12:28:26;;;;;;;;;;;18.90;99.90;;;;;;5057118;28;19944;-62
2022/10/30 12:30:54;;;;;;;;;;;18.90;99.90;;;;;;5057597;28;19929;-62
2022/10/30 12:33:24;;;;;;;;;;;18.90;99.90;;;;;;5057630;28;20835;-62
2022/10/30 12:35:54;;;;;;;;;;;18.80;99.90;;;;;;5058103;28;19929;-62
2022/10/30 12:38:25;;;;;;;;;;;18.80;99.90;;;;;;5057377;28;20391;-62
2022/10/30 12:41:00;;;;;;;;;;;18.80;99.90;;;;;;5057337;28;20388;-62
2022/10/30 12:43:27;;;;;;;;;;;18.80;99.90;;;;;;5057116;28;19928;-62
2022/10/30 12:45:56;;;;;;;;;;;18.80;99.90;;;;;;5056813;28;19939;-62
2022/10/30 12:48:24;;;;;;;;;;;18.70;99.90;;;;;;5059847;28;20423;-63
2022/10/30 12:50:57;;;;;;;;;;;18.70;99.90;;;;;;5058822;28;19936;-62
2022/10/30 12:53:27;;;;;;;;;;;18.70;99.90;;;;;;5059390;28;19935;-63
2022/10/30 12:55:55;;;;;;;;;;;18.60;99.90;;;;;;5058394;28;19928;-62
2022/10/30 12:58:27;;;;;;;;;;;18.60;99.90;;;;;;5059897;28;19933;-63
2022/10/30 13:00:58;;;;;;;;;;;18.60;99.90;;;;;;5059612;28;20062;-62
2022/10/30 13:03:28;;;;;;;;;;;18.60;99.90;;;;;;5058905;28;22068;-62
2022/10/30 13:05:56;;;;;;;;;;;18.60;99.90;;;;;;5058921;28;19928;-62
2022/10/30 13:08:27;;;;;;;;;;;18.60;99.90;;;;;;5057504;28;19943;-62
2022/10/30 13:10:55;;;;;;;;;;;18.60;99.90;;;;;;5058150;28;19932;-63
2022/10/30 13:13:23;;;;;;;;;;;18.50;99.90;;;;;;5057674;28;19940;-62
2022/10/30 13:15:53;;;;;;;;;;;18.60;99.90;;;;;;5058339;28;20982;-62
2022/10/30 13:18:20;;;;;;;;;;;18.60;99.90;;;;;;5059400;28;19932;-62
2022/10/30 13:21:01;;;;;;;;;;;18.60;99.90;;;;;;5058890;28;19928;-62
2022/10/30 13:23:31;;;;;;;;;;;18.60;99.90;;;;;;5059184;28;19932;-62
2022/10/30 13:26:03;;;;;;;;;;;18.60;99.90;;;;;;5057279;28;19936;-62
2022/10/30 13:28:33;;;;;;;;;;;18.50;99.90;;;;;;5059236;28;19933;-63
2022/10/30 13:31:06;;;;;;;;;;;18.50;99.90;;;;;;5058862;28;20953;-62
2022/10/30 13:33:38;;;;;;;;;;;18.50;99.90;;;;;;5058772;28;19933;-62
2022/10/30 13:36:07;;;;;;;;;;;18.50;99.90;;;;;;5058137;28;19940;-62
2022/10/30 13:38:39;;;;;;;;;;;18.50;99.90;;;;;;5059512;28;20047;-62
2022/10/30 13:41:09;;;;;;;;;;;18.50;99.90;;;;;;5058850;28;22036;-62
2022/10/30 13:43:42;;;;;;;;;;;18.60;99.90;;;;;;5059140;28;19929;-62
2022/10/30 13:46:22;;;;;;;;;;;18.50;99.90;;;;;;5057537;28;20023;-62
2022/10/30 13:49:09;;;;;;;;;;;18.50;99.90;;;;;;5058894;28;22329;-63
2022/10/30 13:51:39;;;;;;;;;;;18.50;99.90;;;;;;5052358;28;19994;-62
2022/10/30 13:54:11;;;;;;;;;;;18.50;99.90;;;;;;5058877;28;19983;-62
2022/10/30 13:56:39;;;;;;;;;;;18.40;99.90;;;;;;5058393;28;20036;-62
2022/10/30 13:59:12;;;;;;;;;;;18.40;99.90;;;;;;5057660;28;20091;-62
2022/10/30 14:01:43;;;;;;;;;;;18.40;99.90;;;;;;5058574;28;19959;-62
2022/10/30 14:04:11;;;;;;;;;;;18.40;99.90;;;;;;5057667;28;19935;-62
2022/10/30 14:06:44;;;;;;;;;;;18.40;99.90;;;;;;5058598;28;19928;-62
2022/10/30 14:09:15;;;;;;;;;;;18.40;99.90;;;;;;5058448;28;22055;-63
2022/10/30 14:11:41;;;;;;;;;;;18.30;99.90;;;;;;5058876;28;19929;-62
2022/10/30 14:14:27;;;;;;;;;;;18.30;99.90;;;;;;5057651;28;19928;-62
2022/10/30 14:17:08;;;;;;;;;;;18.30;99.90;;;;;;5058503;28;19929;-62
2022/10/30 14:20:01;;;;;;;;;;;18.30;99.90;;;;;;5058374;28;19939;-62
2022/10/30 14:22:28;;;;;;;;;;;18.30;99.90;;;;;;5058613;28;19936;-62
2022/10/30 14:24:54;;;;;;;;;;;18.30;99.90;;;;;;5057287;28;20315;-62